sensor_id;sensor_type;location;lat;lon;timestamp;P1;durP1;ratioP1;P2;durP2;ratioP2
55170;SDS011;41060;47.510;8.680;2024-03-22T00:01:45;4.57;;;2.20;;
55170;SDS011;41060;47.510;8.680;2024-03-22T00:04:12;4.03;;;1.95;;
55170;SDS011;41060;47.510;8.680;2024-03-22T00:06:38;2.97;;;1.40;;
55170;SDS011;41060;47.510;8.680;2024-03-22T00:09:05;4.32;;;1.60;;
55170;SDS011;41060;47.510;8.680;2024-03-22T00:11:31;3.40;;;2.03;;
55170;SDS011;41060;47.510;8.680;2024-03-22T00:13:58;7.30;;;1.85;;
55170;SDS011;41060;47.510;8.680;2024-03-22T00:16:24;2.75;;;1.80;;
55170;SDS011;41060;47.510;8.680;2024-03-22T00:18:52;4.57;;;2.05;;
55170;SDS011;41060;47.510;8.680;2024-03-22T00:21:18;4.07;;;1.92;;
55170;SDS011;41060;47.510;8.680;2024-03-22T00:23:45;2.75;;;1.60;;
55170;SDS011;41060;47.510;8.680;2024-03-22T00:26:11;3.03;;;1.77;;
55170;SDS011;41060;47.510;8.680;2024-03-22T00:28:38;2.45;;;1.50;;
55170;SDS011;41060;47.510;8.680;2024-03-22T00:31:06;2.65;;;1.60;;
55170;SDS011;41060;47.510;8.680;2024-03-22T00:33:33;5.47;;;1.80;;
55170;SDS011;41060;47.510;8.680;2024-03-22T00:36:00;5.18;;;2.47;;
55170;SDS011;41060;47.510;8.680;2024-03-22T00:38:29;4.97;;;2.03;;
55170;SDS011;41060;47.510;8.680;2024-03-22T00:40:55;3.33;;;1.90;;
55170;SDS011;41060;47.510;8.680;2024-03-22T00:43:22;3.88;;;1.67;;
55170;SDS011;41060;47.510;8.680;2024-03-22T00:45:48;3.38;;;2.08;;
55170;SDS011;41060;47.510;8.680;2024-03-22T00:48:15;3.15;;;1.40;;
55170;SDS011;41060;47.510;8.680;2024-03-22T00:50:40;3.47;;;2.15;;
55170;SDS011;41060;47.510;8.680;2024-03-22T00:53:09;3.97;;;1.70;;
55170;SDS011;41060;47.510;8.680;2024-03-22T00:55:35;3.85;;;1.60;;
55170;SDS011;41060;47.510;8.680;2024-03-22T00:58:02;4.15;;;1.95;;
55170;SDS011;41060;47.510;8.680;2024-03-22T01:00:28;3.60;;;1.65;;
55170;SDS011;41060;47.510;8.680;2024-03-22T01:02:54;3.88;;;1.63;;
55170;SDS011;41060;47.510;8.680;2024-03-22T01:05:20;4.47;;;2.28;;
55170;SDS011;41060;47.510;8.680;2024-03-22T01:07:47;2.97;;;1.63;;
55170;SDS011;41060;47.510;8.680;2024-03-22T01:10:14;3.85;;;2.05;;
55170;SDS011;41060;47.510;8.680;2024-03-22T01:12:41;3.88;;;1.52;;
55170;SDS011;41060;47.510;8.680;2024-03-22T01:15:07;1.85;;;1.63;;
55170;SDS011;41060;47.510;8.680;2024-03-22T01:17:36;3.10;;;1.45;;
55170;SDS011;41060;47.510;8.680;2024-03-22T01:20:02;3.50;;;1.35;;
55170;SDS011;41060;47.510;8.680;2024-03-22T01:22:30;3.67;;;1.70;;
55170;SDS011;41060;47.510;8.680;2024-03-22T01:24:56;4.43;;;1.75;;
55170;SDS011;41060;47.510;8.680;2024-03-22T01:27:24;2.85;;;1.60;;
55170;SDS011;41060;47.510;8.680;2024-03-22T01:29:50;4.40;;;1.60;;
55170;SDS011;41060;47.510;8.680;2024-03-22T01:32:16;2.80;;;2.00;;
55170;SDS011;41060;47.510;8.680;2024-03-22T01:34:42;3.58;;;2.13;;
55170;SDS011;41060;47.510;8.680;2024-03-22T01:37:09;2.47;;;1.88;;
55170;SDS011;41060;47.510;8.680;2024-03-22T01:39:35;2.80;;;1.48;;
55170;SDS011;41060;47.510;8.680;2024-03-22T01:42:02;4.68;;;1.67;;
55170;SDS011;41060;47.510;8.680;2024-03-22T01:44:30;4.28;;;1.65;;
55170;SDS011;41060;47.510;8.680;2024-03-22T01:46:58;3.65;;;1.60;;
55170;SDS011;41060;47.510;8.680;2024-03-22T01:49:25;3.83;;;2.00;;
55170;SDS011;41060;47.510;8.680;2024-03-22T01:51:52;5.10;;;1.60;;
55170;SDS011;41060;47.510;8.680;2024-03-22T01:54:19;2.55;;;1.80;;
55170;SDS011;41060;47.510;8.680;2024-03-22T01:56:46;4.03;;;1.50;;
55170;SDS011;41060;47.510;8.680;2024-03-22T01:59:15;2.95;;;1.50;;
55170;SDS011;41060;47.510;8.680;2024-03-22T02:01:45;6.10;;;1.92;;
55170;SDS011;41060;47.510;8.680;2024-03-22T02:04:11;3.47;;;1.80;;
55170;SDS011;41060;47.510;8.680;2024-03-22T02:06:38;3.08;;;1.60;;
55170;SDS011;41060;47.510;8.680;2024-03-22T02:09:03;3.08;;;1.80;;
55170;SDS011;41060;47.510;8.680;2024-03-22T02:11:32;3.50;;;1.67;;
55170;SDS011;41060;47.510;8.680;2024-03-22T02:13:58;2.80;;;1.85;;
55170;SDS011;41060;47.510;8.680;2024-03-22T02:16:25;2.42;;;1.52;;
55170;SDS011;41060;47.510;8.680;2024-03-22T02:18:52;2.50;;;1.90;;
55170;SDS011;41060;47.510;8.680;2024-03-22T02:21:19;4.65;;;1.85;;
55170;SDS011;41060;47.510;8.680;2024-03-22T02:23:46;3.10;;;2.03;;
55170;SDS011;41060;47.510;8.680;2024-03-22T02:26:13;3.38;;;1.77;;
55170;SDS011;41060;47.510;8.680;2024-03-22T02:28:39;2.67;;;1.80;;
55170;SDS011;41060;47.510;8.680;2024-03-22T02:31:07;2.55;;;1.52;;
55170;SDS011;41060;47.510;8.680;2024-03-22T02:33:33;2.65;;;1.70;;
55170;SDS011;41060;47.510;8.680;2024-03-22T02:36:00;4.15;;;2.25;;
55170;SDS011;41060;47.510;8.680;2024-03-22T02:38:25;2.72;;;1.65;;
55170;SDS011;41060;47.510;8.680;2024-03-22T02:40:53;3.83;;;1.58;;
55170;SDS011;41060;47.510;8.680;2024-03-22T02:43:19;3.40;;;2.35;;
55170;SDS011;41060;47.510;8.680;2024-03-22T02:45:47;4.57;;;1.52;;
55170;SDS011;41060;47.510;8.680;2024-03-22T02:48:13;2.15;;;1.52;;
55170;SDS011;41060;47.510;8.680;2024-03-22T02:50:40;4.03;;;1.75;;
55170;SDS011;41060;47.510;8.680;2024-03-22T02:53:06;3.80;;;1.52;;
55170;SDS011;41060;47.510;8.680;2024-03-22T02:55:36;3.28;;;2.15;;
55170;SDS011;41060;47.510;8.680;2024-03-22T02:58:05;3.05;;;1.70;;
55170;SDS011;41060;47.510;8.680;2024-03-22T03:00:32;2.00;;;1.60;;
55170;SDS011;41060;47.510;8.680;2024-03-22T03:03:01;6.18;;;2.00;;
55170;SDS011;41060;47.510;8.680;2024-03-22T03:05:28;3.60;;;1.65;;
55170;SDS011;41060;47.510;8.680;2024-03-22T03:07:54;4.18;;;2.13;;
55170;SDS011;41060;47.510;8.680;2024-03-22T03:10:23;4.30;;;1.65;;
55170;SDS011;41060;47.510;8.680;2024-03-22T03:12:54;6.35;;;2.38;;
55170;SDS011;41060;47.510;8.680;2024-03-22T03:15:22;3.08;;;2.20;;
55170;SDS011;41060;47.510;8.680;2024-03-22T03:17:48;3.22;;;2.08;;
55170;SDS011;41060;47.510;8.680;2024-03-22T03:20:15;5.60;;;2.35;;
55170;SDS011;41060;47.510;8.680;2024-03-22T03:22:42;4.28;;;2.20;;
55170;SDS011;41060;47.510;8.680;2024-03-22T03:25:09;4.53;;;1.98;;
55170;SDS011;41060;47.510;8.680;2024-03-22T03:27:38;3.38;;;2.00;;
55170;SDS011;41060;47.510;8.680;2024-03-22T03:30:05;2.58;;;1.77;;
55170;SDS011;41060;47.510;8.680;2024-03-22T03:32:33;3.22;;;1.98;;
55170;SDS011;41060;47.510;8.680;2024-03-22T03:35:00;5.47;;;1.73;;
55170;SDS011;41060;47.510;8.680;2024-03-22T03:37:30;2.67;;;1.75;;
55170;SDS011;41060;47.510;8.680;2024-03-22T03:39:57;3.25;;;1.90;;
55170;SDS011;41060;47.510;8.680;2024-03-22T03:42:23;4.18;;;1.75;;
55170;SDS011;41060;47.510;8.680;2024-03-22T03:44:50;7.00;;;2.10;;
55170;SDS011;41060;47.510;8.680;2024-03-22T03:47:16;7.30;;;1.67;;
55170;SDS011;41060;47.510;8.680;2024-03-22T03:49:46;2.88;;;1.80;;
55170;SDS011;41060;47.510;8.680;2024-03-22T03:52:11;5.40;;;2.08;;
55170;SDS011;41060;47.510;8.680;2024-03-22T03:54:38;4.07;;;1.70;;
55170;SDS011;41060;47.510;8.680;2024-03-22T03:57:04;3.95;;;2.08;;
55170;SDS011;41060;47.510;8.680;2024-03-22T03:59:31;2.97;;;1.92;;
55170;SDS011;41060;47.510;8.680;2024-03-22T04:01:56;2.35;;;1.92;;
55170;SDS011;41060;47.510;8.680;2024-03-22T04:04:24;3.60;;;2.03;;
55170;SDS011;41060;47.510;8.680;2024-03-22T04:06:51;4.60;;;1.83;;
55170;SDS011;41060;47.510;8.680;2024-03-22T04:09:17;8.05;;;1.60;;
55170;SDS011;41060;47.510;8.680;2024-03-22T04:11:43;3.38;;;1.77;;
55170;SDS011;41060;47.510;8.680;2024-03-22T04:14:10;5.88;;;2.50;;
55170;SDS011;41060;47.510;8.680;2024-03-22T04:16:36;3.28;;;2.20;;
55170;SDS011;41060;47.510;8.680;2024-03-22T04:19:03;3.53;;;1.77;;
55170;SDS011;41060;47.510;8.680;2024-03-22T04:21:29;4.90;;;2.72;;
55170;SDS011;41060;47.510;8.680;2024-03-22T04:23:57;4.30;;;1.92;;
55170;SDS011;41060;47.510;8.680;2024-03-22T04:26:23;4.80;;;2.03;;
55170;SDS011;41060;47.510;8.680;2024-03-22T04:28:50;4.00;;;1.73;;
55170;SDS011;41060;47.510;8.680;2024-03-22T04:31:15;3.88;;;2.17;;
55170;SDS011;41060;47.510;8.680;2024-03-22T04:33:42;5.30;;;2.60;;
55170;SDS011;41060;47.510;8.680;2024-03-22T04:36:08;3.28;;;2.17;;
55170;SDS011;41060;47.510;8.680;2024-03-22T04:38:38;7.85;;;2.53;;
55170;SDS011;41060;47.510;8.680;2024-03-22T04:41:06;3.10;;;2.10;;
55170;SDS011;41060;47.510;8.680;2024-03-22T04:43:32;3.20;;;2.05;;
55170;SDS011;41060;47.510;8.680;2024-03-22T04:45:59;4.10;;;2.05;;
55170;SDS011;41060;47.510;8.680;2024-03-22T04:48:26;3.17;;;2.30;;
55170;SDS011;41060;47.510;8.680;2024-03-22T04:50:54;4.18;;;2.50;;
55170;SDS011;41060;47.510;8.680;2024-03-22T04:53:23;5.30;;;2.95;;
55170;SDS011;41060;47.510;8.680;2024-03-22T04:55:49;3.90;;;2.42;;
55170;SDS011;41060;47.510;8.680;2024-03-22T04:58:19;3.60;;;2.47;;
55170;SDS011;41060;47.510;8.680;2024-03-22T05:00:45;4.72;;;2.20;;
55170;SDS011;41060;47.510;8.680;2024-03-22T05:03:13;5.90;;;2.17;;
55170;SDS011;41060;47.510;8.680;2024-03-22T05:05:40;3.67;;;1.92;;
55170;SDS011;41060;47.510;8.680;2024-03-22T05:08:07;4.13;;;2.15;;
55170;SDS011;41060;47.510;8.680;2024-03-22T05:10:33;4.22;;;2.45;;
55170;SDS011;41060;47.510;8.680;2024-03-22T05:13:00;3.35;;;1.88;;
55170;SDS011;41060;47.510;8.680;2024-03-22T05:15:27;5.55;;;2.15;;
55170;SDS011;41060;47.510;8.680;2024-03-22T05:17:56;6.15;;;2.50;;
55170;SDS011;41060;47.510;8.680;2024-03-22T05:20:22;4.75;;;2.30;;
55170;SDS011;41060;47.510;8.680;2024-03-22T05:22:49;7.90;;;2.08;;
55170;SDS011;41060;47.510;8.680;2024-03-22T05:25:15;6.90;;;2.83;;
55170;SDS011;41060;47.510;8.680;2024-03-22T05:27:42;3.72;;;2.33;;
55170;SDS011;41060;47.510;8.680;2024-03-22T05:30:08;4.47;;;2.42;;
55170;SDS011;41060;47.510;8.680;2024-03-22T05:32:38;4.82;;;2.50;;
55170;SDS011;41060;47.510;8.680;2024-03-22T05:35:03;3.45;;;1.77;;
55170;SDS011;41060;47.510;8.680;2024-03-22T05:37:33;3.42;;;1.88;;
55170;SDS011;41060;47.510;8.680;2024-03-22T05:40:00;4.63;;;1.95;;
55170;SDS011;41060;47.510;8.680;2024-03-22T05:42:26;4.60;;;2.30;;
55170;SDS011;41060;47.510;8.680;2024-03-22T05:44:53;3.13;;;2.10;;
55170;SDS011;41060;47.510;8.680;2024-03-22T05:47:22;4.07;;;2.42;;
55170;SDS011;41060;47.510;8.680;2024-03-22T05:49:49;4.88;;;2.53;;
55170;SDS011;41060;47.510;8.680;2024-03-22T05:52:16;5.72;;;2.63;;
55170;SDS011;41060;47.510;8.680;2024-03-22T05:54:43;6.65;;;2.55;;
55170;SDS011;41060;47.510;8.680;2024-03-22T05:57:09;5.05;;;2.70;;
55170;SDS011;41060;47.510;8.680;2024-03-22T05:59:36;5.93;;;3.40;;
55170;SDS011;41060;47.510;8.680;2024-03-22T06:02:02;7.10;;;3.67;;
55170;SDS011;41060;47.510;8.680;2024-03-22T06:04:29;5.88;;;3.00;;
55170;SDS011;41060;47.510;8.680;2024-03-22T06:06:56;3.95;;;2.53;;
55170;SDS011;41060;47.510;8.680;2024-03-22T06:09:25;6.07;;;2.45;;
55170;SDS011;41060;47.510;8.680;2024-03-22T06:12:02;5.95;;;2.30;;
55170;SDS011;41060;47.510;8.680;2024-03-22T06:14:29;4.90;;;3.08;;
55170;SDS011;41060;47.510;8.680;2024-03-22T06:16:55;5.45;;;3.08;;
55170;SDS011;41060;47.510;8.680;2024-03-22T06:19:22;4.70;;;2.60;;
55170;SDS011;41060;47.510;8.680;2024-03-22T06:21:49;3.08;;;2.08;;
55170;SDS011;41060;47.510;8.680;2024-03-22T06:24:17;6.95;;;2.78;;
55170;SDS011;41060;47.510;8.680;2024-03-22T06:26:42;3.13;;;2.30;;
55170;SDS011;41060;47.510;8.680;2024-03-22T06:29:09;6.28;;;2.80;;
55170;SDS011;41060;47.510;8.680;2024-03-22T06:31:35;5.00;;;2.42;;
55170;SDS011;41060;47.510;8.680;2024-03-22T06:34:02;5.88;;;2.25;;
55170;SDS011;41060;47.510;8.680;2024-03-22T06:36:29;5.15;;;2.38;;
55170;SDS011;41060;47.510;8.680;2024-03-22T06:38:57;6.85;;;2.25;;
55170;SDS011;41060;47.510;8.680;2024-03-22T06:41:25;5.63;;;2.50;;
55170;SDS011;41060;47.510;8.680;2024-03-22T06:43:51;3.10;;;2.00;;
55170;SDS011;41060;47.510;8.680;2024-03-22T06:46:21;3.88;;;2.10;;
55170;SDS011;41060;47.510;8.680;2024-03-22T06:48:48;4.28;;;2.17;;
55170;SDS011;41060;47.510;8.680;2024-03-22T06:51:15;3.70;;;2.33;;
55170;SDS011;41060;47.510;8.680;2024-03-22T06:53:40;5.93;;;2.40;;
55170;SDS011;41060;47.510;8.680;2024-03-22T06:56:07;5.78;;;2.70;;
55170;SDS011;41060;47.510;8.680;2024-03-22T06:58:39;3.72;;;2.63;;
55170;SDS011;41060;47.510;8.680;2024-03-22T07:01:06;5.47;;;3.00;;
55170;SDS011;41060;47.510;8.680;2024-03-22T07:03:31;3.35;;;2.88;;
55170;SDS011;41060;47.510;8.680;2024-03-22T07:05:59;5.32;;;2.88;;
55170;SDS011;41060;47.510;8.680;2024-03-22T07:08:25;3.63;;;2.22;;
55170;SDS011;41060;47.510;8.680;2024-03-22T07:10:52;4.97;;;2.65;;
55170;SDS011;41060;47.510;8.680;2024-03-22T07:13:20;8.05;;;3.13;;
55170;SDS011;41060;47.510;8.680;2024-03-22T07:15:48;6.50;;;2.67;;
55170;SDS011;41060;47.510;8.680;2024-03-22T07:18:14;6.57;;;3.33;;
55170;SDS011;41060;47.510;8.680;2024-03-22T07:20:42;5.95;;;2.85;;
55170;SDS011;41060;47.510;8.680;2024-03-22T07:23:07;6.82;;;3.10;;
55170;SDS011;41060;47.510;8.680;2024-03-22T07:25:34;4.65;;;2.60;;
55170;SDS011;41060;47.510;8.680;2024-03-22T07:28:00;4.43;;;2.55;;
55170;SDS011;41060;47.510;8.680;2024-03-22T07:30:27;6.22;;;2.70;;
55170;SDS011;41060;47.510;8.680;2024-03-22T07:32:54;5.00;;;2.30;;
55170;SDS011;41060;47.510;8.680;2024-03-22T07:35:21;4.10;;;2.85;;
55170;SDS011;41060;47.510;8.680;2024-03-22T07:37:47;3.20;;;2.33;;
55170;SDS011;41060;47.510;8.680;2024-03-22T07:40:14;4.18;;;2.35;;
55170;SDS011;41060;47.510;8.680;2024-03-22T07:42:40;11.18;;;3.20;;
55170;SDS011;41060;47.510;8.680;2024-03-22T07:45:07;8.80;;;2.90;;
55170;SDS011;41060;47.510;8.680;2024-03-22T07:47:33;5.00;;;2.67;;
55170;SDS011;41060;47.510;8.680;2024-03-22T07:50:02;4.43;;;2.25;;
55170;SDS011;41060;47.510;8.680;2024-03-22T07:52:28;4.97;;;2.58;;
55170;SDS011;41060;47.510;8.680;2024-03-22T07:54:55;4.13;;;2.55;;
55170;SDS011;41060;47.510;8.680;2024-03-22T07:57:21;3.85;;;2.50;;
55170;SDS011;41060;47.510;8.680;2024-03-22T07:59:49;5.50;;;2.75;;
55170;SDS011;41060;47.510;8.680;2024-03-22T08:02:14;7.80;;;2.25;;
55170;SDS011;41060;47.510;8.680;2024-03-22T08:04:42;3.90;;;2.38;;
55170;SDS011;41060;47.510;8.680;2024-03-22T08:07:08;4.78;;;2.53;;
55170;SDS011;41060;47.510;8.680;2024-03-22T08:09:35;4.60;;;2.88;;
55170;SDS011;41060;47.510;8.680;2024-03-22T08:12:01;9.15;;;3.42;;
55170;SDS011;41060;47.510;8.680;2024-03-22T08:14:28;4.28;;;3.33;;
55170;SDS011;41060;47.510;8.680;2024-03-22T08:16:54;4.78;;;2.65;;
55170;SDS011;41060;47.510;8.680;2024-03-22T08:19:21;7.03;;;3.03;;
55170;SDS011;41060;47.510;8.680;2024-03-22T08:21:46;8.80;;;2.88;;
55170;SDS011;41060;47.510;8.680;2024-03-22T08:24:14;4.28;;;2.60;;
55170;SDS011;41060;47.510;8.680;2024-03-22T08:26:42;6.22;;;2.78;;
55170;SDS011;41060;47.510;8.680;2024-03-22T08:29:11;4.78;;;2.97;;
55170;SDS011;41060;47.510;8.680;2024-03-22T08:31:38;3.90;;;2.38;;
55170;SDS011;41060;47.510;8.680;2024-03-22T08:34:05;5.35;;;2.60;;
55170;SDS011;41060;47.510;8.680;2024-03-22T08:36:30;4.45;;;2.40;;
55170;SDS011;41060;47.510;8.680;2024-03-22T08:38:57;3.67;;;2.47;;
55170;SDS011;41060;47.510;8.680;2024-03-22T08:41:27;3.88;;;2.55;;
55170;SDS011;41060;47.510;8.680;2024-03-22T08:43:53;4.30;;;2.33;;
55170;SDS011;41060;47.510;8.680;2024-03-22T08:46:19;5.38;;;2.30;;
55170;SDS011;41060;47.510;8.680;2024-03-22T08:48:49;6.25;;;2.13;;
55170;SDS011;41060;47.510;8.680;2024-03-22T08:51:14;3.75;;;2.15;;
55170;SDS011;41060;47.510;8.680;2024-03-22T08:53:41;3.67;;;2.33;;
55170;SDS011;41060;47.510;8.680;2024-03-22T08:56:07;3.65;;;1.80;;
55170;SDS011;41060;47.510;8.680;2024-03-22T08:58:35;3.83;;;1.45;;
55170;SDS011;41060;47.510;8.680;2024-03-22T09:01:01;4.68;;;1.65;;
55170;SDS011;41060;47.510;8.680;2024-03-22T09:03:28;4.10;;;2.10;;
55170;SDS011;41060;47.510;8.680;2024-03-22T09:05:55;2.90;;;1.70;;
55170;SDS011;41060;47.510;8.680;2024-03-22T09:08:23;3.55;;;2.00;;
55170;SDS011;41060;47.510;8.680;2024-03-22T09:10:51;6.28;;;1.88;;
55170;SDS011;41060;47.510;8.680;2024-03-22T09:13:21;5.22;;;1.90;;
55170;SDS011;41060;47.510;8.680;2024-03-22T09:15:48;4.20;;;1.30;;
55170;SDS011;41060;47.510;8.680;2024-03-22T09:18:23;2.88;;;1.60;;
55170;SDS011;41060;47.510;8.680;2024-03-22T09:20:49;2.15;;;1.30;;
55170;SDS011;41060;47.510;8.680;2024-03-22T09:23:15;2.03;;;0.93;;
55170;SDS011;41060;47.510;8.680;2024-03-22T09:25:41;2.25;;;1.13;;
55170;SDS011;41060;47.510;8.680;2024-03-22T09:28:10;4.72;;;1.30;;
55170;SDS011;41060;47.510;8.680;2024-03-22T09:30:37;2.20;;;1.48;;
55170;SDS011;41060;47.510;8.680;2024-03-22T09:33:06;4.85;;;1.50;;
55170;SDS011;41060;47.510;8.680;2024-03-22T09:35:33;2.55;;;1.20;;
55170;SDS011;41060;47.510;8.680;2024-03-22T09:37:59;4.05;;;1.52;;
55170;SDS011;41060;47.510;8.680;2024-03-22T09:40:26;1.85;;;1.20;;
55170;SDS011;41060;47.510;8.680;2024-03-22T09:42:53;3.67;;;2.05;;
55170;SDS011;41060;47.510;8.680;2024-03-22T09:45:24;3.58;;;1.60;;
55170;SDS011;41060;47.510;8.680;2024-03-22T09:47:52;4.85;;;1.77;;
55170;SDS011;41060;47.510;8.680;2024-03-22T09:50:22;3.85;;;1.40;;
55170;SDS011;41060;47.510;8.680;2024-03-22T09:52:48;3.17;;;1.65;;
55170;SDS011;41060;47.510;8.680;2024-03-22T09:55:18;5.20;;;1.33;;
55170;SDS011;41060;47.510;8.680;2024-03-22T09:57:49;3.00;;;1.88;;
55170;SDS011;41060;47.510;8.680;2024-03-22T10:00:16;5.97;;;1.55;;
55170;SDS011;41060;47.510;8.680;2024-03-22T10:02:46;5.38;;;1.80;;
55170;SDS011;41060;47.510;8.680;2024-03-22T10:05:12;2.88;;;1.40;;
55170;SDS011;41060;47.510;8.680;2024-03-22T10:07:40;3.60;;;1.65;;
55170;SDS011;41060;47.510;8.680;2024-03-22T10:10:07;3.08;;;1.92;;
55170;SDS011;41060;47.510;8.680;2024-03-22T10:12:34;2.45;;;1.35;;
55170;SDS011;41060;47.510;8.680;2024-03-22T10:14:59;3.38;;;1.55;;
55170;SDS011;41060;47.510;8.680;2024-03-22T10:17:27;5.45;;;1.48;;
55170;SDS011;41060;47.510;8.680;2024-03-22T10:19:53;3.50;;;1.42;;
55170;SDS011;41060;47.510;8.680;2024-03-22T10:22:20;2.65;;;1.52;;
55170;SDS011;41060;47.510;8.680;2024-03-22T10:24:51;2.78;;;1.40;;
55170;SDS011;41060;47.510;8.680;2024-03-22T10:27:18;5.57;;;1.67;;
55170;SDS011;41060;47.510;8.680;2024-03-22T10:29:44;3.65;;;1.27;;
55170;SDS011;41060;47.510;8.680;2024-03-22T10:32:13;1.95;;;1.30;;
55170;SDS011;41060;47.510;8.680;2024-03-22T10:34:41;2.95;;;1.30;;
55170;SDS011;41060;47.510;8.680;2024-03-22T10:37:10;2.75;;;1.38;;
55170;SDS011;41060;47.510;8.680;2024-03-22T10:39:40;2.45;;;1.10;;
55170;SDS011;41060;47.510;8.680;2024-03-22T10:42:09;2.05;;;1.30;;
55170;SDS011;41060;47.510;8.680;2024-03-22T10:44:35;3.13;;;1.58;;
55170;SDS011;41060;47.510;8.680;2024-03-22T10:47:02;2.92;;;1.40;;
55170;SDS011;41060;47.510;8.680;2024-03-22T10:49:31;3.03;;;1.20;;
55170;SDS011;41060;47.510;8.680;2024-03-22T10:52:04;3.67;;;1.63;;
55170;SDS011;41060;47.510;8.680;2024-03-22T10:54:35;2.10;;;1.23;;
55170;SDS011;41060;47.510;8.680;2024-03-22T10:57:05;3.30;;;1.23;;
55170;SDS011;41060;47.510;8.680;2024-03-22T10:59:37;2.25;;;1.33;;
55170;SDS011;41060;47.510;8.680;2024-03-22T11:02:10;2.00;;;1.30;;
55170;SDS011;41060;47.510;8.680;2024-03-22T11:04:36;1.90;;;1.27;;
55170;SDS011;41060;47.510;8.680;2024-03-22T11:07:03;2.33;;;1.33;;
55170;SDS011;41060;47.510;8.680;2024-03-22T11:09:29;2.13;;;1.00;;
55170;SDS011;41060;47.510;8.680;2024-03-22T11:11:56;1.73;;;0.90;;
55170;SDS011;41060;47.510;8.680;2024-03-22T11:14:22;1.67;;;0.90;;
55170;SDS011;41060;47.510;8.680;2024-03-22T11:16:51;3.00;;;0.85;;
55170;SDS011;41060;47.510;8.680;2024-03-22T11:19:18;2.08;;;1.00;;
55170;SDS011;41060;47.510;8.680;2024-03-22T11:21:44;2.72;;;1.33;;
55170;SDS011;41060;47.510;8.680;2024-03-22T11:24:10;3.03;;;1.08;;
55170;SDS011;41060;47.510;8.680;2024-03-22T11:26:37;0.80;;;0.57;;
55170;SDS011;41060;47.510;8.680;2024-03-22T11:29:03;1.35;;;0.70;;
55170;SDS011;41060;47.510;8.680;2024-03-22T11:31:30;2.20;;;0.90;;
55170;SDS011;41060;47.510;8.680;2024-03-22T11:33:57;2.38;;;0.60;;
55170;SDS011;41060;47.510;8.680;2024-03-22T11:36:24;0.95;;;0.57;;
55170;SDS011;41060;47.510;8.680;2024-03-22T11:38:50;0.47;;;0.40;;
55170;SDS011;41060;47.510;8.680;2024-03-22T11:41:19;1.90;;;0.98;;
55170;SDS011;41060;47.510;8.680;2024-03-22T11:43:49;1.83;;;0.82;;
55170;SDS011;41060;47.510;8.680;2024-03-22T11:46:17;2.70;;;1.00;;
55170;SDS011;41060;47.510;8.680;2024-03-22T11:48:43;1.40;;;0.90;;
55170;SDS011;41060;47.510;8.680;2024-03-22T11:51:11;2.10;;;0.80;;
55170;SDS011;41060;47.510;8.680;2024-03-22T11:53:37;3.92;;;1.00;;
55170;SDS011;41060;47.510;8.680;2024-03-22T11:56:05;1.63;;;0.60;;
55170;SDS011;41060;47.510;8.680;2024-03-22T11:58:33;1.20;;;0.60;;
55170;SDS011;41060;47.510;8.680;2024-03-22T12:01:00;2.38;;;0.80;;
55170;SDS011;41060;47.510;8.680;2024-03-22T12:03:27;1.90;;;1.13;;
55170;SDS011;41060;47.510;8.680;2024-03-22T12:05:55;4.80;;;0.90;;
55170;SDS011;41060;47.510;8.680;2024-03-22T12:08:23;3.25;;;0.82;;
55170;SDS011;41060;47.510;8.680;2024-03-22T12:10:49;1.50;;;0.60;;
55170;SDS011;41060;47.510;8.680;2024-03-22T12:13:15;2.22;;;0.80;;
55170;SDS011;41060;47.510;8.680;2024-03-22T12:15:42;2.80;;;0.85;;
55170;SDS011;41060;47.510;8.680;2024-03-22T12:18:08;0.90;;;0.55;;
55170;SDS011;41060;47.510;8.680;2024-03-22T12:20:34;1.85;;;0.70;;
55170;SDS011;41060;47.510;8.680;2024-03-22T12:23:01;2.20;;;1.20;;
55170;SDS011;41060;47.510;8.680;2024-03-22T12:25:29;2.10;;;0.77;;
55170;SDS011;41060;47.510;8.680;2024-03-22T12:27:55;1.30;;;0.70;;
55170;SDS011;41060;47.510;8.680;2024-03-22T12:30:22;4.57;;;1.30;;
55170;SDS011;41060;47.510;8.680;2024-03-22T12:32:47;1.73;;;1.00;;
55170;SDS011;41060;47.510;8.680;2024-03-22T12:35:16;1.88;;;0.93;;
55170;SDS011;41060;47.510;8.680;2024-03-22T12:37:43;1.45;;;0.90;;
55170;SDS011;41060;47.510;8.680;2024-03-22T12:40:10;1.95;;;0.80;;
55170;SDS011;41060;47.510;8.680;2024-03-22T12:42:38;2.08;;;0.80;;
55170;SDS011;41060;47.510;8.680;2024-03-22T12:45:05;1.35;;;0.73;;
55170;SDS011;41060;47.510;8.680;2024-03-22T12:47:32;1.92;;;1.10;;
55170;SDS011;41060;47.510;8.680;2024-03-22T12:49:58;1.52;;;0.60;;
55170;SDS011;41060;47.510;8.680;2024-03-22T12:52:25;2.80;;;0.90;;
55170;SDS011;41060;47.510;8.680;2024-03-22T12:54:52;2.20;;;0.75;;
55170;SDS011;41060;47.510;8.680;2024-03-22T12:57:17;2.60;;;1.00;;
55170;SDS011;41060;47.510;8.680;2024-03-22T12:59:46;1.52;;;0.68;;
55170;SDS011;41060;47.510;8.680;2024-03-22T13:02:11;2.40;;;1.00;;
55170;SDS011;41060;47.510;8.680;2024-03-22T13:04:38;2.22;;;0.63;;
55170;SDS011;41060;47.510;8.680;2024-03-22T13:07:04;1.42;;;0.60;;
55170;SDS011;41060;47.510;8.680;2024-03-22T13:09:31;2.67;;;0.93;;
55170;SDS011;41060;47.510;8.680;2024-03-22T13:11:57;3.42;;;0.90;;
55170;SDS011;41060;47.510;8.680;2024-03-22T13:14:24;1.75;;;0.60;;
55170;SDS011;41060;47.510;8.680;2024-03-22T13:16:51;1.27;;;0.60;;
55170;SDS011;41060;47.510;8.680;2024-03-22T13:19:17;2.38;;;0.57;;
55170;SDS011;41060;47.510;8.680;2024-03-22T13:21:44;1.13;;;0.80;;
55170;SDS011;41060;47.510;8.680;2024-03-22T13:24:13;1.08;;;0.65;;
55170;SDS011;41060;47.510;8.680;2024-03-22T13:26:40;3.90;;;0.85;;
55170;SDS011;41060;47.510;8.680;2024-03-22T13:29:08;1.38;;;0.77;;
55170;SDS011;41060;47.510;8.680;2024-03-22T13:31:34;1.90;;;0.70;;
55170;SDS011;41060;47.510;8.680;2024-03-22T13:34:01;2.03;;;0.88;;
55170;SDS011;41060;47.510;8.680;2024-03-22T13:36:29;1.60;;;0.88;;
55170;SDS011;41060;47.510;8.680;2024-03-22T13:38:57;1.63;;;0.90;;
55170;SDS011;41060;47.510;8.680;2024-03-22T13:41:24;2.90;;;0.90;;
55170;SDS011;41060;47.510;8.680;2024-03-22T13:43:50;1.85;;;1.00;;
55170;SDS011;41060;47.510;8.680;2024-03-22T13:46:17;2.67;;;0.98;;
55170;SDS011;41060;47.510;8.680;2024-03-22T13:48:43;4.32;;;1.13;;
55170;SDS011;41060;47.510;8.680;2024-03-22T13:51:11;1.20;;;0.60;;
55170;SDS011;41060;47.510;8.680;2024-03-22T13:53:40;1.50;;;0.80;;
55170;SDS011;41060;47.510;8.680;2024-03-22T13:56:07;3.22;;;0.77;;
55170;SDS011;41060;47.510;8.680;2024-03-22T13:58:34;1.60;;;0.60;;
55170;SDS011;41060;47.510;8.680;2024-03-22T14:01:00;4.47;;;0.90;;
55170;SDS011;41060;47.510;8.680;2024-03-22T14:03:26;2.03;;;0.70;;
55170;SDS011;41060;47.510;8.680;2024-03-22T14:05:53;1.38;;;0.77;;
55170;SDS011;41060;47.510;8.680;2024-03-22T14:08:20;1.63;;;0.63;;
55170;SDS011;41060;47.510;8.680;2024-03-22T14:10:47;1.60;;;0.55;;
55170;SDS011;41060;47.510;8.680;2024-03-22T14:13:13;1.20;;;0.90;;
55170;SDS011;41060;47.510;8.680;2024-03-22T14:15:40;1.00;;;0.70;;
55170;SDS011;41060;47.510;8.680;2024-03-22T14:18:06;1.70;;;0.90;;
55170;SDS011;41060;47.510;8.680;2024-03-22T14:20:33;1.38;;;0.80;;
55170;SDS011;41060;47.510;8.680;2024-03-22T14:22:59;2.53;;;0.60;;
55170;SDS011;41060;47.510;8.680;2024-03-22T14:25:27;3.00;;;0.65;;
55170;SDS011;41060;47.510;8.680;2024-03-22T14:27:53;1.65;;;0.65;;
55170;SDS011;41060;47.510;8.680;2024-03-22T14:30:20;1.90;;;0.88;;
55170;SDS011;41060;47.510;8.680;2024-03-22T14:32:46;1.67;;;0.77;;
55170;SDS011;41060;47.510;8.680;2024-03-22T14:35:13;1.05;;;0.75;;
55170;SDS011;41060;47.510;8.680;2024-03-22T14:37:39;1.38;;;0.88;;
55170;SDS011;41060;47.510;8.680;2024-03-22T14:40:06;1.48;;;0.80;;
55170;SDS011;41060;47.510;8.680;2024-03-22T14:42:37;1.23;;;0.50;;
55170;SDS011;41060;47.510;8.680;2024-03-22T14:45:04;0.60;;;0.55;;
55170;SDS011;41060;47.510;8.680;2024-03-22T14:47:30;1.58;;;0.77;;